createdAt,value
2022-09-03T00:01:33.096Z,3.60
2022-09-03T00:06:40.149Z,3.70
2022-09-03T00:12:02.245Z,3.75
2022-09-03T00:17:14.554Z,3.58
2022-09-03T00:22:21.544Z,3.60
2022-09-03T00:27:27.387Z,3.40
2022-09-03T00:32:40.560Z,3.60
2022-09-03T00:37:44.987Z,3.30
2022-09-03T00:43:06.533Z,3.50
2022-09-03T00:48:27.754Z,3.05
2022-09-03T00:53:37.297Z,3.30
2022-09-03T00:59:14.573Z,3.42
2022-09-03T01:04:39.022Z,2.58
2022-09-03T01:09:57.804Z,3.53
2022-09-03T01:15:04.604Z,3.40
2022-09-03T01:20:26.281Z,3.28
2022-09-03T01:26:10.464Z,3.33
2022-09-03T01:31:35.506Z,3.45
2022-09-03T01:36:45.146Z,2.95
2022-09-03T01:42:20.668Z,3.30
2022-09-03T01:47:33.890Z,3.25
2022-09-03T01:52:56.983Z,3.35
2022-09-03T01:58:15.042Z,3.07
2022-09-03T02:03:18.042Z,3.42
2022-09-03T02:08:21.071Z,3.40
2022-09-03T02:13:39.608Z,3.30
2022-09-03T02:18:46.644Z,3.42
2022-09-03T02:23:49.940Z,3.75
2022-09-03T02:28:54.135Z,3.30
2022-09-03T02:33:59.006Z,3.03
2022-09-03T02:39:01.609Z,3.40
2022-09-03T02:44:34.711Z,3.53
2022-09-03T02:49:40.291Z,3.40
2022-09-03T02:54:45.289Z,3.13
2022-09-03T02:59:50.599Z,3.30
2022-09-03T03:04:55.216Z,3.15
2022-09-03T03:15:00.396Z,3.47
2022-09-03T03:20:04.042Z,3.40
2022-09-03T03:25:07.249Z,3.40
2022-09-03T03:30:11.487Z,3.28
2022-09-03T03:35:14.156Z,3.30
2022-09-03T03:40:17.488Z,3.40
2022-09-03T03:45:20.448Z,3.35
2022-09-03T03:50:26.181Z,3.30
2022-09-03T03:55:29.043Z,3.22
2022-09-03T04:00:38.071Z,3.60
2022-09-03T04:05:43.828Z,3.40
2022-09-03T04:10:52.652Z,3.50
2022-09-03T04:16:04.173Z,3.33
2022-09-03T04:21:12.615Z,3.33
2022-09-03T04:26:18.578Z,3.63
2022-09-03T04:31:21.960Z,3.10
2022-09-03T04:36:27.025Z,3.33
2022-09-03T04:41:30.861Z,3.67
2022-09-03T04:46:35.074Z,3.10
2022-09-03T04:51:38.612Z,3.47
2022-09-03T04:56:41.966Z,3.67
2022-09-03T05:01:44.802Z,3.15
2022-09-03T05:06:47.579Z,3.28
2022-09-03T05:11:51.438Z,3.30
2022-09-03T05:16:54.203Z,3.20
2022-09-03T05:21:56.842Z,3.20
2022-09-03T05:26:59.840Z,3.30
2022-09-03T05:32:04.212Z,3.10
2022-09-03T05:37:08.873Z,2.80
2022-09-03T05:47:17.205Z,3.20
2022-09-03T05:52:21.934Z,3.05
2022-09-03T05:57:26.747Z,3.10
2022-09-03T06:02:29.659Z,2.95
2022-09-03T06:07:34.309Z,2.90
2022-09-03T06:17:40.102Z,2.90
2022-09-03T06:22:43.657Z,3.13
2022-09-03T06:27:47.641Z,3.20
2022-09-03T06:32:50.808Z,3.13
2022-09-03T06:37:54.663Z,3.00
2022-09-03T06:43:02.028Z,2.78
2022-09-03T06:48:05.992Z,2.97
2022-09-03T06:53:08.684Z,2.78
2022-09-03T06:58:12.976Z,3.10
2022-09-03T07:03:17.845Z,3.00
2022-09-03T07:08:23.527Z,3.30
2022-09-03T07:13:26.967Z,3.05
2022-09-03T07:18:30.977Z,3.47
2022-09-03T07:23:34.541Z,2.83
2022-09-03T07:28:39.145Z,3.00
2022-09-03T07:33:43.120Z,2.75
2022-09-03T07:38:46.019Z,2.83
2022-09-03T07:43:50.309Z,3.22
2022-09-03T07:53:58.098Z,3.22
2022-09-03T07:59:01.415Z,3.15
2022-09-03T08:04:06.642Z,2.97
2022-09-03T08:09:14.065Z,3.05
2022-09-03T08:14:16.882Z,3.30
2022-09-03T08:19:19.870Z,2.90
2022-09-03T08:24:24.847Z,2.88
2022-09-03T08:29:27.756Z,2.97
2022-09-03T08:34:30.483Z,2.70
2022-09-03T08:39:34.699Z,2.92
2022-09-03T08:44:56.894Z,2.97
2022-09-03T08:50:09.271Z,2.70
2022-09-03T08:55:30.518Z,2.70
2022-09-03T09:01:01.582Z,2.80
2022-09-03T09:06:27.258Z,3.00
2022-09-03T09:11:42.897Z,2.70
2022-09-03T09:17:33.203Z,2.60
2022-09-03T09:22:40.510Z,2.42
2022-09-03T09:28:05.007Z,2.80
2022-09-03T09:33:07.730Z,2.50
2022-09-03T09:38:13.723Z,2.40
2022-09-03T09:43:22.995Z,2.40
2022-09-03T09:48:34.726Z,2.35
2022-09-03T09:53:37.553Z,2.83
2022-09-03T09:58:40.635Z,2.95
2022-09-03T10:03:55.494Z,3.35
2022-09-03T10:09:13.210Z,2.30
2022-09-03T10:14:35.236Z,2.33
2022-09-03T10:20:07.865Z,2.40
2022-09-03T10:25:10.739Z,2.42
2022-09-03T10:30:17.106Z,2.50
2022-09-03T10:35:32.165Z,2.47
2022-09-03T10:40:42.043Z,2.38
2022-09-03T10:46:06.454Z,2.35
2022-09-03T10:51:34.237Z,2.40
2022-09-03T10:56:54.909Z,2.50
2022-09-03T11:02:25.520Z,2.63
2022-09-03T11:07:58.662Z,2.37
2022-09-03T11:13:06.986Z,3.13
2022-09-03T11:18:45.939Z,2.30
2022-09-03T11:23:55.237Z,2.55
2022-09-03T11:29:06.118Z,2.47
2022-09-03T11:34:23.282Z,2.30
2022-09-03T11:39:39.464Z,2.33
2022-09-03T11:44:51.009Z,2.40
2022-09-03T11:55:09.145Z,2.38
2022-09-03T12:00:22.905Z,2.40
2022-09-03T12:05:25.643Z,2.17
2022-09-03T12:15:35.046Z,2.40
2022-09-03T12:20:39.955Z,2.35
2022-09-03T12:25:47.720Z,2.30
2022-09-03T12:30:53.795Z,2.47
2022-09-03T12:36:01.410Z,2.25
2022-09-03T12:41:23.562Z,2.33
2022-09-03T12:46:33.613Z,2.42
2022-09-03T12:51:54.325Z,2.30
2022-09-03T12:56:59.885Z,2.50
2022-09-03T13:02:12.971Z,2.33
2022-09-03T13:07:33.713Z,2.90
2022-09-03T13:12:53.018Z,2.45
2022-09-03T13:18:20.544Z,3.00
2022-09-03T13:23:35.529Z,2.47
2022-09-03T13:28:53.615Z,2.60
2022-09-03T13:34:03.593Z,2.38
2022-09-03T13:39:24.791Z,2.58
2022-09-03T13:44:50.472Z,2.47
2022-09-03T13:50:21.296Z,2.50
2022-09-03T13:55:53.361Z,2.97
2022-09-03T14:00:59.146Z,2.53
2022-09-03T14:06:07.400Z,2.60
2022-09-03T14:11:24.324Z,2.70
2022-09-03T14:16:51.595Z,2.60
2022-09-03T14:22:00.050Z,2.30
2022-09-03T14:27:03.027Z,2.80
2022-09-03T14:32:46.397Z,2.50
2022-09-03T14:38:10.179Z,3.00
2022-09-03T14:43:27.608Z,2.90
2022-09-03T14:49:02.283Z,3.00
2022-09-03T14:54:28.483Z,2.90
2022-09-03T14:59:31.323Z,2.70
2022-09-03T15:05:12.317Z,2.80
2022-09-03T15:10:33.345Z,3.17
2022-09-03T15:15:41.830Z,3.22
2022-09-03T15:21:27.204Z,3.00
2022-09-03T15:26:45.519Z,3.03
2022-09-03T15:31:58.240Z,3.28
2022-09-03T15:37:07.225Z,2.80
2022-09-03T15:42:27.470Z,2.80
2022-09-03T15:47:51.530Z,2.88
2022-09-03T15:53:00.802Z,3.08
2022-09-03T15:58:34.679Z,3.22
2022-09-03T16:03:56.276Z,3.10
2022-09-03T16:09:09.259Z,3.27
2022-09-03T16:14:28.945Z,3.17
2022-09-03T16:19:54.279Z,3.22
2022-09-03T16:25:01.447Z,2.90
2022-09-03T16:30:04.187Z,5.53
2022-09-03T16:35:50.327Z,3.00
2022-09-03T16:41:30.627Z,3.03
2022-09-03T16:46:55.406Z,3.20
2022-09-03T16:52:37.591Z,3.35
2022-09-03T16:58:03.585Z,4.07
2022-09-03T17:03:26.513Z,3.65
2022-09-03T17:08:58.611Z,3.53
2022-09-03T17:14:35.720Z,3.60
2022-09-03T17:19:51.717Z,3.47
2022-09-03T17:25:07.946Z,3.60
2022-09-03T17:30:29.320Z,3.50
2022-09-03T17:36:14.721Z,3.60
2022-09-03T17:41:20.705Z,3.35
2022-09-03T17:46:51.618Z,3.35
2022-09-03T17:52:06.512Z,3.60
2022-09-03T17:57:15.656Z,3.30
2022-09-03T18:02:45.195Z,3.40
2022-09-03T18:08:02.898Z,3.60
2022-09-03T18:13:30.839Z,3.67
2022-09-03T18:18:37.244Z,3.88
2022-09-03T18:24:20.562Z,4.20
2022-09-03T18:29:54.323Z,4.18
2022-09-03T18:35:16.228Z,4.13
2022-09-03T18:40:44.912Z,3.67
2022-09-03T18:52:52.477Z,4.38
2022-09-03T18:58:44.460Z,4.20
2022-09-03T19:04:09.759Z,4.73
2022-09-03T19:10:03.600Z,5.07
2022-09-03T19:15:48.640Z,4.10
2022-09-03T19:21:26.101Z,4.90
2022-09-03T19:27:03.037Z,4.43
2022-09-03T19:32:33.558Z,4.65
2022-09-03T19:38:16.767Z,4.57
2022-09-03T19:49:22.979Z,4.50
2022-09-03T19:54:46.594Z,4.63
2022-09-03T20:05:41.561Z,5.20
2022-09-03T20:11:04.822Z,5.03
2022-09-03T20:21:21.372Z,4.40
2022-09-03T20:26:30.167Z,5.10
2022-09-03T20:31:59.696Z,4.95
2022-09-03T20:37:25.251Z,5.05
2022-09-03T20:42:41.349Z,4.97
2022-09-03T20:48:04.075Z,5.13
2022-09-03T20:53:51.985Z,5.57
2022-09-03T20:59:01.326Z,5.00
2022-09-03T21:04:18.885Z,6.40
2022-09-03T21:09:53.194Z,5.55
2022-09-03T21:15:03.990Z,5.45
2022-09-03T21:20:22.491Z,5.88
2022-09-03T21:25:33.309Z,5.22
2022-09-03T21:30:40.839Z,5.35
2022-09-03T21:35:47.882Z,5.60
2022-09-03T21:41:21.680Z,5.30
2022-09-03T21:51:58.621Z,5.63
2022-09-03T21:57:12.374Z,5.72
2022-09-03T22:02:28.180Z,5.35
2022-09-03T22:07:43.831Z,6.47
2022-09-03T22:13:00.843Z,5.60
2022-09-03T22:18:29.302Z,5.55
2022-09-03T22:23:55.307Z,5.40
2022-09-03T22:29:06.987Z,5.38
2022-09-03T22:34:31.353Z,6.00
2022-09-03T22:39:36.463Z,5.78
2022-09-03T22:45:01.302Z,5.47
2022-09-03T22:50:09.038Z,5.60
2022-09-03T22:55:23.282Z,5.50
2022-09-03T23:00:29.942Z,5.80
2022-09-03T23:05:41.780Z,5.63
2022-09-03T23:11:25.826Z,5.38
2022-09-03T23:16:40.584Z,5.30
2022-09-03T23:21:50.366Z,6.25
2022-09-03T23:26:53.797Z,6.32
2022-09-03T23:31:57.567Z,5.53
2022-09-03T23:37:33.742Z,6.70
2022-09-03T23:42:58.073Z,5.85
2022-09-03T23:48:42.963Z,6.30
2022-09-03T23:53:53.416Z,6.13
2022-09-03T23:59:20.442Z,6.70
